Portada
METAR-TAF:

METAR-TAF

Aeroports :

Rāwalpindi, Pakistan

latitud: 33-37N, longitud: 073-06E, altitud: 507 m

Observació

L'informe es va fer fa 37 minuts, a les 14:00 UTC
Vent 6 kt del Oest
Temperatura 16°C
Humitat 55%
Pressió 1014 hPa
Visibilitat: 7000 m
Escasses núvols a una alçada de 25000 ft

METAR: OPRN 231400Z 27006KT 7000 FEW250 16/07 Q1014 NOSIG RMK A2996

Hora: 19:37 (14:37 UTC)

Pronòstic

L'informe es va fer fa 5 hores i 7 minuts, a les 09:30 UTC
Pronòstic vàlid del 23 a les 12 UTC al 24 a les 18 UTC
Vent 10 kt del Oest
Visibilitat: 6000 m
Escasses núvols a una alçada de 12000 ft
Cel ennuvolat a una alçada de 18000 ft
Temporalment
l' 24 a les 00 UTC al 24 a les 04 UTC
Visibilitat: 2000 m
boirina

TAF: OPRN 230930Z 2312/2418 27010KT 6000 FEW120 BKN180 TEMPO 2400/2404 2000 BR

Observacions i pronòstics meteorològics de més de 4000 aeroports (METAR i TAF).

Les estacions disponibles són els punts grocs i vermells al mapa.

Posi el ratolí al punt desitjat per veure el nom de l'estació.

Feu clic per veure les observacions i els pronòstics meteorològics.

Per canviar el mapa: feu clic els botons verds amb una creu de color negre per apropar; al botó verd amb un guió per allunyar la imatge; o en les fletxes verdes per a mapes adjacents.


METAR-TAF: